Time;durP1;ratioP1;P1;durP2;ratioP2;P2;SDS_P1;SDS_P2;PMS_P1;PMS_P2;Temp;Humidity;BMP_temperature;BMP_pressure;BME280_temperature;BME280_humidity;BME280_pressure;Samples;Min_cycle;Max_cycle;Signal;HPM_P1;HPM_P2
2022/12/06 00:00:38;;;;;;;24.50;14.30;;;;;;;11.43;nan;100902.13;6187685;23;20416;-90
2022/12/06 00:03:12;;;;;;;29.80;15.80;;;;;;;11.58;nan;100932.16;6162089;23;20423;-91
2022/12/06 00:05:40;;;;;;;38.93;20.53;;;;;;;11.54;nan;100922.66;6137526;23;20408;-89
2022/12/06 00:08:14;;;;;;;28.63;15.30;;;;;;;11.49;nan;100914.19;6115567;23;20744;-89
2022/12/06 00:44:56;;;;;;;21.93;9.03;;;;;;;11.12;nan;100925.34;6187032;23;20399;-90
2022/12/06 00:47:26;;;;;;;21.27;7.43;;;;;;;11.16;nan;100940.34;6135186;23;20519;-90
2022/12/06 00:49:59;;;;;;;15.00;7.40;;;;;;;11.16;nan;100946.63;6114039;23;20424;-90
2022/12/06 00:52:39;;;;;;;11.53;6.13;;;;;;;11.17;nan;100944.75;6113433;23;20400;-89
2022/12/06 00:55:10;;;;;;;13.83;5.80;;;;;;;11.18;nan;100951.91;6113117;23;20400;-89
2022/12/06 00:57:43;;;;;;;15.23;6.63;;;;;;;11.12;nan;100953.56;6136591;23;20476;-89
2022/12/06 01:00:15;;;;;;;18.60;7.43;;;;;;;11.14;nan;100956.94;6160476;23;20439;-89
2022/12/06 01:02:47;;;;;;;14.93;5.83;;;;;;;11.14;nan;100951.47;6136307;23;20408;-88
2022/12/06 01:05:16;;;;;;;13.87;5.63;;;;;;;11.12;nan;100953.56;6161219;23;20867;-89
2022/12/06 01:07:51;;;;;;;10.40;5.30;;;;;;;11.13;nan;100951.66;6113012;23;20419;-90
2022/12/06 01:10:23;;;;;;;11.50;6.20;;;;;;;11.13;nan;100965.34;6112163;23;20454;-89
2022/12/06 01:12:55;;;;;;;11.50;6.63;;;;;;;11.11;nan;100964.69;6113479;23;20482;-89
2022/12/06 01:15:25;;;;;;;14.63;7.20;;;;;;;11.11;nan;100961.97;6113777;23;20396;-89
2022/12/06 01:17:54;;;;;;;11.50;5.73;;;;;;;10.97;nan;100941.78;6136659;23;20403;-89
2022/12/06 01:20:24;;;;;;;11.67;6.27;;;;;;;11.03;nan;100949.22;6113806;23;20471;-89
2022/12/06 01:22:54;;;;;;;10.60;5.80;;;;;;;11.01;nan;100954.03;6112908;23;20503;-89
2022/12/06 01:25:22;;;;;;;12.60;6.60;;;;;;;10.91;nan;100924.28;6111963;23;20411;-89
2022/12/06 01:27:55;;;;;;;11.37;6.03;;;;;;;10.93;nan;100932.28;6137695;23;20411;-89
2022/12/06 01:30:24;;;;;;;14.53;5.83;;;;;;;10.95;nan;100946.63;6111986;23;20784;-89
2022/12/06 01:32:54;;;;;;;13.67;6.40;;;;;;;10.94;nan;100945.78;6112265;23;20520;-88
2022/12/06 01:35:28;;;;;;;10.83;5.33;;;;;;;10.94;nan;100944.91;6136894;23;20471;-89
2022/12/06 01:37:59;;;;;;;15.63;5.20;;;;;;;10.91;nan;100942.56;6135757;23;20442;-89
2022/12/06 01:40:50;;;;;;;9.97;6.30;;;;;;;10.91;nan;100945.31;6160844;23;20447;-89
2022/12/06 01:43:40;;;;;;;12.93;7.30;;;;;;;10.83;nan;100932.56;6136358;23;20467;-89
2022/12/06 01:46:31;;;;;;;11.97;6.00;;;;;;;10.91;nan;100954.34;6107127;23;20432;-89
2022/12/06 01:49:26;;;;;;;13.57;4.97;;;;;;;10.86;nan;100954.06;6108532;23;20544;-89
2022/12/06 01:52:00;;;;;;;7.30;4.30;;;;;;;10.86;nan;100959.53;6156838;23;20413;-89
2022/12/06 01:54:35;;;;;;;9.73;5.33;;;;;;;10.76;nan;100956.25;6106733;23;20467;-89
2022/12/06 01:57:07;;;;;;;12.37;6.30;;;;;;;10.79;nan;100975.00;6106552;23;20879;-89
2022/12/06 01:59:37;;;;;;;14.13;6.07;;;;;;;10.80;nan;100975.84;6107026;23;20935;-89
2022/12/06 02:02:08;;;;;;;8.07;5.10;;;;;;;10.80;nan;100979.44;6083867;23;20393;-89
2022/12/06 02:04:45;;;;;;;12.20;7.00;;;;;;;10.70;nan;100959.75;6083505;23;20951;-89
2022/12/06 02:07:16;;;;;;;15.43;7.93;;;;;;;10.78;nan;100981.50;6154877;23;20421;-89
2022/12/06 02:09:44;;;;;;;21.33;11.23;;;;;;;10.81;nan;100989.31;6083109;23;20405;-90
2022/12/06 02:12:13;;;;;;;20.43;8.90;;;;;;;10.78;nan;100978.75;6106393;23;20409;-89
2022/12/06 02:14:50;;;;;;;14.43;8.50;;;;;;;10.81;nan;100983.84;6083965;23;20400;-89
2022/12/06 02:17:43;;;;;;;14.90;5.90;;;;;;;10.85;nan;100996.13;6083654;23;20397;-89
2022/12/06 02:20:31;;;;;;;10.70;4.53;;;;;;;10.84;nan;100997.16;6130375;23;20449;-89
2022/12/06 02:23:29;;;;;;;9.10;4.47;;;;;;;10.82;nan;101006.59;6131046;23;20479;-89
2022/12/06 02:26:14;;;;;;;14.57;4.70;;;;;;;10.76;nan;101007.34;6130832;23;20750;-89
2022/12/06 02:29:18;;;;;;;8.07;4.50;;;;;;;10.80;nan;101020.44;6154090;23;20409;-89
2022/12/06 02:32:07;;;;;;;9.77;5.23;;;;;;;10.81;nan;101027.59;6131411;23;20516;-89
2022/12/06 02:35:10;;;;;;;11.87;4.93;;;;;;;10.80;nan;101033.25;6108971;23;20466;-90
2022/12/06 02:37:53;;;;;;;12.80;6.60;;;;;;;10.73;nan;101024.97;6131498;23;20605;-89
2022/12/06 02:40:36;;;;;;;7.80;3.93;;;;;;;10.77;nan;101026.31;6132432;23;20436;-90
2022/12/06 02:43:12;;;;;;;7.30;4.33;;;;;;;10.77;nan;101037.25;6131559;23;20464;-89
2022/12/06 02:45:45;;;;;;;9.03;4.40;;;;;;;10.76;nan;101035.53;6110478;23;20947;-89
2022/12/06 02:48:16;;;;;;;8.30;4.83;;;;;;;10.76;nan;101037.44;6112253;23;20514;-89
2022/12/06 02:50:51;;;;;;;10.30;5.97;;;;;;;10.77;nan;101037.25;6160426;23;20472;-90
2022/12/06 02:53:21;;;;;;;8.50;4.70;;;;;;;10.79;nan;101046.06;6137407;23;20527;-89
2022/12/06 02:55:51;;;;;;;12.13;5.33;;;;;;;10.74;nan;101048.56;6111788;23;20540;-89
2022/12/06 02:58:18;;;;;;;8.77;4.73;;;;;;;10.77;nan;101063.72;6111587;23;20412;-89
2022/12/06 03:00:54;;;;;;;8.20;4.60;;;;;;;10.76;nan;101071.09;6111769;23;20451;-89
2022/12/06 03:03:45;;;;;;;8.53;4.30;;;;;;;10.76;nan;101062.88;6135849;23;20757;-90
2022/12/06 03:06:21;;;;;;;8.93;4.50;;;;;;;10.74;nan;101059.47;6161694;23;20826;-89
2022/12/06 03:09:04;;;;;;;7.70;4.10;;;;;;;10.73;nan;101065.97;6162337;23;20535;-89
2022/12/06 03:11:54;;;;;;;11.63;4.90;;;;;;;10.71;nan;101054.38;6162781;23;20523;-90
2022/12/06 03:14:26;;;;;;;7.60;4.23;;;;;;;10.76;nan;101071.09;6115740;23;20412;-90
2022/12/06 03:17:07;;;;;;;12.27;4.43;;;;;;;10.79;nan;101069.84;6113722;23;20476;-89
2022/12/06 03:19:42;;;;;;;10.20;3.90;;;;;;;10.81;nan;101065.88;6140099;23;20427;-90
2022/12/06 03:22:32;;;;;;;11.47;3.70;;;;;;;10.81;nan;101074.09;6114024;23;20527;-89
2022/12/06 03:25:05;;;;;;;6.63;3.10;;;;;;;10.77;nan;101086.44;6140062;23;20472;-89
2022/12/06 03:27:35;;;;;;;5.07;2.70;;;;;;;10.72;nan;101083.41;6113987;23;20725;-90
2022/12/06 03:30:09;;;;;;;7.53;3.80;;;;;;;10.70;nan;101089.06;6112971;23;20472;-90
2022/12/06 03:32:40;;;;;;;7.33;3.93;;;;;;;10.62;nan;101077.34;6137192;23;20400;-89
2022/12/06 03:35:23;;;;;;;9.10;4.13;;;;;;;10.64;nan;101092.53;6113979;23;20495;-90
2022/12/06 03:37:58;;;;;;;11.00;4.60;;;;;;;10.64;nan;101086.22;6115186;23;20413;-89
2022/12/06 03:40:29;;;;;;;19.47;6.43;;;;;;;10.64;nan;101092.53;6113217;23;20432;-89
2022/12/06 03:42:58;;;;;;;12.60;5.40;;;;;;;10.62;nan;101088.28;6113605;23;20412;-89
2022/12/06 03:45:53;;;;;;;9.90;4.03;;;;;;;10.64;nan;101092.53;6114778;23;20533;-90
2022/12/06 03:48:50;;;;;;;11.27;5.17;;;;;;;10.62;nan;101100.06;6162236;23;20404;-90
2022/12/06 03:51:22;;;;;;;16.50;6.13;;;;;;;10.56;nan;101089.06;6159409;23;20412;-90
2022/12/06 03:53:52;;;;;;;18.50;6.70;;;;;;;10.60;nan;101095.81;6137745;23;20406;-89
2022/12/06 03:56:20;;;;;;;14.37;7.40;;;;;;;10.58;nan;101104.19;6113393;23;20483;-89
2022/12/06 03:58:50;;;;;;;17.17;6.17;;;;;;;10.56;nan;101109.03;6113343;23;20397;-90
2022/12/06 04:01:26;;;;;;;21.97;7.33;;;;;;;10.45;nan;101081.28;6113672;23;20507;-89
2022/12/06 04:04:02;;;;;;;15.70;5.30;;;;;;;10.49;nan;101104.47;6113887;23;20942;-90
2022/12/06 04:06:33;;;;;;;24.97;4.33;;;;;;;10.49;nan;101107.22;6137262;23;20454;-89
2022/12/06 04:11:53;;;;;;;31.43;14.87;;;;;;;10.41;nan;101107.28;6165671;23;20960;-90
2022/12/06 04:14:22;;;;;;;13.00;3.70;;;;;;;10.39;nan;101115.69;6112844;23;20415;-89
2022/12/06 04:19:42;;;;;;;7.43;2.10;;;;;;;10.27;nan;101117.97;6144269;23;20474;-90
2022/12/06 04:25:05;;;;;;;9.70;1.50;;;;;;;10.29;nan;101128.72;6145327;23;20480;-90
2022/12/06 04:39:09;;;;;;;5.20;2.23;;;;;;;10.39;nan;101132.06;6165095;23;20412;-89
2022/12/06 04:44:32;;;;;;;9.97;2.57;;;;;;;10.37;nan;101134.13;6144803;23;20740;-90
2022/12/06 04:47:00;;;;;;;4.10;1.40;;;;;;;10.30;nan;101125.81;6131684;23;20588;-90
2022/12/06 04:49:30;;;;;;;6.63;1.67;;;;;;;10.35;nan;101139.78;6155868;23;20432;-90
2022/12/06 04:51:59;;;;;;;3.60;1.70;;;;;;;10.37;nan;101148.66;6107496;23;20555;-90
2022/12/06 04:54:30;;;;;;;7.23;2.03;;;;;;;10.37;nan;101145.91;6131600;23;20409;-90
2022/12/06 04:57:09;;;;;;;5.53;1.57;;;;;;;10.27;nan;101133.53;6107683;23;20404;-90
2022/12/06 04:59:41;;;;;;;4.27;1.47;;;;;;;10.30;nan;101139.47;6108646;23;20499;-89
2022/12/06 05:02:11;;;;;;;4.80;1.60;;;;;;;10.24;nan;101134.72;6084173;23;20520;-89
2022/12/06 05:04:41;;;;;;;4.53;1.73;;;;;;;10.16;nan;101115.66;6131640;23;20508;-89
2022/12/06 05:07:11;;;;;;;4.13;1.70;;;;;;;10.23;nan;101141.22;6085140;23;20412;-90
2022/12/06 05:09:41;;;;;;;6.00;1.97;;;;;;;10.09;nan;101117.41;6131289;23;20468;-90
2022/12/06 05:12:17;;;;;;;13.70;2.90;;;;;;;10.22;nan;101141.41;6131535;23;20774;-89
2022/12/06 05:14:51;;;;;;;6.87;2.10;;;;;;;10.21;nan;101146.00;6107517;23;20393;-90
2022/12/06 05:17:26;;;;;;;9.00;2.10;;;;;;;10.10;nan;101132.75;6107368;23;20480;-89
2022/12/06 05:19:58;;;;;;;8.93;1.37;;;;;;;10.23;nan;101143.09;6107372;23;20512;-90
2022/12/06 05:22:33;;;;;;;3.70;1.17;;;;;;;10.22;nan;101150.44;6038166;23;20495;-90
2022/12/06 05:25:01;;;;;;;12.43;5.33;;;;;;;10.17;nan;101144.66;6038759;23;20477;-90
2022/12/06 05:27:29;;;;;;;9.13;3.70;;;;;;;10.14;nan;101150.50;6014822;23;20492;-90
2022/12/06 05:30:11;;;;;;;34.27;16.37;;;;;;;10.15;nan;101160.38;6015089;23;20507;-89
2022/12/06 05:32:41;;;;;;;19.30;6.17;;;;;;;10.09;nan;101155.63;6038153;23;20421;-89
2022/12/06 05:35:09;;;;;;;12.83;4.47;;;;;;;10.09;nan;101162.97;6014983;23;20581;-90
2022/12/06 05:37:46;;;;;;;15.00;4.03;;;;;;;10.08;nan;101169.47;6038489;23;20409;-89
2022/12/06 05:40:19;;;;;;;11.80;2.73;;;;;;;10.09;nan;101169.28;6050307;23;20440;-89
2022/12/06 05:42:53;;;;;;;21.53;3.03;;;;;;;9.94;nan;101157.44;6131482;23;20884;-90
2022/12/06 05:45:22;;;;;;;14.40;3.90;;;;;;;9.99;nan;101164.06;6107605;23;20891;-90
2022/12/06 05:47:56;;;;;;;16.57;6.23;;;;;;;10.02;nan;101179.22;6108452;23;20525;-89
2022/12/06 05:50:26;;;;;;;11.07;2.90;;;;;;;9.99;nan;101187.78;6083125;23;20417;-90
2022/12/06 05:52:55;;;;;;;10.47;1.70;;;;;;;9.97;nan;101187.97;6107378;23;20397;-90
2022/12/06 05:55:28;;;;;;;11.33;1.77;;;;;;;9.97;nan;101187.13;6131077;23;20954;-90
2022/12/06 05:58:00;;;;;;;3.10;1.03;;;;;;;9.88;nan;101189.03;6107856;23;20417;-90
2022/12/06 06:00:38;;;;;;;12.47;1.30;;;;;;;9.90;nan;101202.50;6131321;23;20825;-90
2022/12/06 06:03:07;;;;;;;43.60;23.03;;;;;;;9.94;nan;101203.84;6082892;23;20423;-90
2022/12/06 06:05:49;;;;;;;14.97;5.63;;;;;;;9.94;nan;101212.03;6083481;23;20416;-90
2022/12/06 06:08:21;;;;;;;6.90;3.30;;;;;;;9.85;nan;101202.19;6108413;23;20393;-90
2022/12/06 06:11:05;;;;;;;9.83;3.47;;;;;;;9.89;nan;101209.84;6131037;23;20492;-89
2022/12/06 06:13:40;;;;;;;8.37;2.50;;;;;;;9.85;nan;101204.91;6106740;23;20420;-90
2022/12/06 06:16:08;;;;;;;8.43;2.60;;;;;;;9.89;nan;101217.19;6130833;23;20400;-89
2022/12/06 06:18:36;;;;;;;4.53;1.80;;;;;;;9.88;nan;101220.94;6131759;23;20405;-88
2022/12/06 06:21:05;;;;;;;13.50;2.00;;;;;;;9.80;nan;101201.88;6083369;23;20520;-89
2022/12/06 06:23:37;;;;;;;9.03;1.20;;;;;;;9.88;nan;101218.22;6129981;23;20413;-89
2022/12/06 06:26:14;;;;;;;10.47;4.13;;;;;;;9.84;nan;101222.31;6131213;23;20393;-89
2022/12/06 06:28:44;;;;;;;5.17;1.50;;;;;;;9.82;nan;101210.72;6107144;23;20480;-88
2022/12/06 06:31:12;;;;;;;3.33;1.50;;;;;;;9.83;nan;101226.94;6107331;23;20464;-88
2022/12/06 06:33:48;;;;;;;14.10;3.23;;;;;;;9.83;nan;101229.66;6131039;23;20480;-88
2022/12/06 06:36:20;;;;;;;8.20;5.43;;;;;;;9.86;nan;101239.38;6106009;23;20415;-88
2022/12/06 06:38:48;;;;;;;15.60;3.77;;;;;;;9.85;nan;101237.66;6130501;23;20545;-88
2022/12/06 06:41:17;;;;;;;16.63;3.10;;;;;;;9.79;nan;101238.41;6108900;23;20938;-89
2022/12/06 06:44:01;;;;;;;10.57;3.40;;;;;;;9.77;nan;101245.91;6132207;23;20884;-88
2022/12/06 06:46:28;;;;;;;11.03;4.20;;;;;;;9.70;nan;101241.16;6108193;23;20515;-89
2022/12/06 06:49:00;;;;;;;5.40;3.17;;;;;;;9.72;nan;101253.75;6085264;23;20413;-88
2022/12/06 06:51:30;;;;;;;8.97;4.83;;;;;;;9.70;nan;101256.66;6084981;23;20540;-89
2022/12/06 06:54:04;;;;;;;11.13;4.10;;;;;;;9.68;nan;101259.56;6084740;23;20472;-89
2022/12/06 06:56:33;;;;;;;10.60;3.87;;;;;;;9.67;nan;101257.88;6085350;23;20516;-89
2022/12/06 06:59:08;;;;;;;5.93;3.40;;;;;;;9.67;nan;101267.94;6084618;23;20472;-89
2022/12/06 07:01:37;;;;;;;5.50;3.30;;;;;;;9.69;nan;101277.66;6084969;23;20447;-89
2022/12/06 07:04:13;;;;;;;14.90;5.77;;;;;;;9.69;nan;101277.66;6085022;23;20404;-89
2022/12/06 07:06:42;;;;;;;9.60;4.40;;;;;;;9.72;nan;101286.53;6084993;23;20393;-88
2022/12/06 07:09:12;;;;;;;13.30;3.20;;;;;;;9.70;nan;101294.88;6084568;23;20401;-89
2022/12/06 07:11:41;;;;;;;14.83;6.07;;;;;;;9.70;nan;101295.72;6084337;23;20402;-88
2022/12/06 07:14:10;;;;;;;32.60;11.60;;;;;;;9.69;nan;101290.44;6108220;23;21027;-88
2022/12/06 07:16:39;;;;;;;20.73;8.80;;;;;;;9.72;nan;101292.84;6084544;23;20484;-89
2022/12/06 07:19:06;;;;;;;12.63;4.60;;;;;;;9.71;nan;101296.59;6084223;23;20492;-89
2022/12/06 07:21:41;;;;;;;15.77;5.07;;;;;;;9.72;nan;101294.72;6157693;23;20436;-88
2022/12/06 07:24:11;;;;;;;14.43;4.93;;;;;;;9.76;nan;101293.34;6108940;23;20404;-89
2022/12/06 07:26:40;;;;;;;18.97;3.70;;;;;;;9.76;nan;101279.69;6108774;23;20471;-89
2022/12/06 07:29:07;;;;;;;9.50;2.80;;;;;;;9.78;nan;101291.28;6108226;23;21002;-88
2022/12/06 07:31:39;;;;;;;9.77;2.93;;;;;;;9.82;nan;101293.47;6083681;23;20405;-88
2022/12/06 07:34:16;;;;;;;4.30;2.17;;;;;;;9.84;nan;101291.41;6156206;23;20417;-89
2022/12/06 07:36:45;;;;;;;22.40;6.67;;;;;;;9.83;nan;101286.13;6132523;23;20400;-89
2022/12/06 07:39:24;;;;;;;22.93;8.70;;;;;;;9.84;nan;101290.56;6107802;23;20417;-90
2022/12/06 07:44:59;;;;;;;19.77;4.87;;;;;;;9.85;nan;101286.81;6157368;23;20903;-90
2022/12/06 07:47:36;;;;;;;18.50;5.00;;;;;;;9.85;nan;101281.34;6132659;23;20433;-90
2022/12/06 07:50:05;;;;;;;11.53;4.33;;;;;;;9.84;nan;101291.41;6131209;23;20734;-89
2022/12/06 07:52:39;;;;;;;12.90;3.40;;;;;;;9.85;nan;101292.28;6107058;23;20468;-89
2022/12/06 07:55:08;;;;;;;14.57;2.90;;;;;;;9.82;nan;101274.34;6107095;23;20389;-88
2022/12/06 07:57:39;;;;;;;7.50;2.23;;;;;;;9.95;nan;101303.84;6132761;23;20853;-89
2022/12/06 08:00:15;;;;;;;17.30;8.13;;;;;;;9.94;nan;101300.28;6133028;23;20720;-90
2022/12/06 08:02:49;;;;;;;14.20;8.33;;;;;;;9.90;nan;101282.53;6107980;23;20472;-89
2022/12/06 08:05:28;;;;;;;12.87;7.07;;;;;;;10.01;nan;101308.59;6108330;23;20392;-89
2022/12/06 08:08:05;;;;;;;11.63;6.80;;;;;;;10.03;nan;101312.00;6132033;23;20476;-87
2022/12/06 08:10:35;;;;;;;12.03;5.87;;;;;;;10.05;nan;101315.41;6132211;23;21012;-89
2022/12/06 08:13:03;;;;;;;13.77;7.60;;;;;;;10.04;nan;101308.25;6156564;23;20528;-90
2022/12/06 08:15:35;;;;;;;15.43;7.43;;;;;;;10.08;nan;101316.94;6131804;23;20408;-90
2022/12/06 08:18:04;;;;;;;16.57;6.73;;;;;;;10.08;nan;101316.94;6131609;23;20405;-90
2022/12/06 08:20:34;;;;;;;14.27;6.87;;;;;;;10.09;nan;101303.09;6107689;23;20512;-90
2022/12/06 08:23:02;;;;;;;10.33;5.47;;;;;;;10.17;nan;101311.28;6108204;23;20400;-91
2022/12/06 08:26:09;;;;;;;10.33;4.30;;;;;;;10.21;nan;101303.59;6131542;23;20892;-94
2022/12/06 08:28:44;;;;;;;7.50;4.17;;;;;;;10.27;nan;101297.41;6132328;23;20396;-91
2022/12/06 08:31:21;;;;;;;9.33;4.13;;;;;;;10.41;nan;101302.13;6107822;23;20485;-92
2022/12/06 08:33:49;;;;;;;6.63;3.60;;;;;;;10.43;nan;101278.19;6107713;23;20473;-89
2022/12/06 08:36:27;;;;;;;7.23;4.40;;;;;;;10.56;nan;101297.63;6106907;23;20472;-90
2022/12/06 08:38:58;;;;;;;8.43;5.70;;;;;;;10.66;nan;101305.56;6107920;23;20409;-88
2022/12/06 08:48:01;;;;;;;24.27;12.90;;;;;;;11.00;nan;101311.47;6181347;23;20482;-89
2022/12/06 08:50:35;;;;;;;42.00;22.60;;;;;;;11.16;nan;101337.03;6113104;23;20432;-88
2022/12/06 08:53:13;;;;;;;28.73;15.60;;;;;;;11.23;nan;101330.63;6136611;23;20761;-88
2022/12/06 08:55:52;;;;;;;14.47;7.27;;;;;;;11.31;nan;101325.09;6161841;23;20543;-89
2022/12/06 08:58:57;;;;;;;7.17;4.70;;;;;;;11.46;nan;101338.78;6140379;23;20389;-91
2022/12/06 09:01:36;;;;;;;8.83;4.97;;;;;;;11.56;nan;101344.84;6160483;23;20590;-89
2022/12/06 09:04:38;;;;;;;12.00;6.37;;;;;;;11.67;nan;101346.31;6185938;23;20534;-90
2022/12/06 09:07:12;;;;;;;10.30;4.17;;;;;;;11.67;nan;101335.34;6160979;23;20942;-90
2022/12/06 09:09:54;;;;;;;8.73;4.60;;;;;;;11.77;nan;101342.28;6160780;23;20392;-93
2022/12/06 09:12:31;;;;;;;9.90;6.07;;;;;;;11.86;nan;101342.22;6112890;23;20527;-90
2022/12/06 09:15:00;;;;;;;15.27;7.07;;;;;;;11.92;nan;101347.78;6111903;23;20800;-90
2022/12/06 09:17:28;;;;;;;16.70;10.90;;;;;;;12.00;nan;101341.34;6135796;23;20412;-91
2022/12/06 09:19:57;;;;;;;19.70;12.97;;;;;;;12.18;nan;101357.41;6111486;23;20396;-92
2022/12/06 09:22:36;;;;;;;12.43;7.60;;;;;;;12.27;nan;101359.88;6115589;23;20431;-90
2022/12/06 09:25:11;;;;;;;7.30;3.93;;;;;;;12.39;nan;101361.09;6111874;23;20408;-93
2022/12/06 09:27:39;;;;;;;7.57;4.77;;;;;;;12.45;nan;101363.09;6135372;23;20415;-90
2022/12/06 09:30:13;;;;;;;8.10;5.43;;;;;;;12.53;nan;101366.75;6112899;23;20392;-90
2022/12/06 09:32:41;;;;;;;9.50;5.33;;;;;;;12.66;nan;101380.63;6136331;23;20411;-92
2022/12/06 09:46:50;;;;;;;10.00;6.90;;;;;;;13.04;nan;101384.88;6186142;23;20391;-91
2022/12/06 09:49:58;;;;;;;11.93;5.43;;;;;;;13.16;nan;101393.47;6160669;23;20470;-93
2022/12/06 09:52:32;;;;;;;11.13;5.40;;;;;;;13.12;nan;101392.13;6137494;23;20472;-94
2022/12/06 09:55:28;;;;;;;8.90;4.90;;;;;;;13.24;nan;101409.84;6113216;23;20801;-92
2022/12/06 09:58:30;;;;;;;10.90;5.77;;;;;;;13.30;nan;101410.94;6160675;23;20412;-90
2022/12/06 10:01:33;;;;;;;11.43;5.63;;;;;;;13.38;nan;101413.56;6136377;23;20442;-91
2022/12/06 10:08:14;;;;;;;10.53;3.63;;;;;;;13.49;nan;101380.06;6186702;23;20934;-89
2022/12/06 10:11:18;;;;;;;7.93;3.50;;;;;;;13.75;nan;101407.78;6160929;23;20416;-91
2022/12/06 10:14:12;;;;;;;4.90;3.00;;;;;;;13.91;nan;101414.03;6139728;23;20467;-92
2022/12/06 10:16:58;;;;;;;5.90;3.33;;;;;;;14.07;nan;101420.06;6162634;23;20419;-91
2022/12/06 10:20:06;;;;;;;8.23;3.00;;;;;;;14.09;nan;101390.50;6161826;23;20411;-92
2022/12/06 10:22:54;;;;;;;17.37;11.73;;;;;;;14.40;nan;101413.97;6162516;23;20494;-93
2022/12/06 10:25:33;;;;;;;68.70;51.10;;;;;;;14.51;nan;101417.00;6114825;23;20965;-92
2022/12/06 10:28:34;;;;;;;37.80;27.43;;;;;;;14.61;nan;101411.16;6115271;23;20956;-92
2022/12/06 10:34:56;;;;;;;12.17;8.50;;;;;;;15.04;nan;101428.25;6188329;23;20519;-91
2022/12/06 10:38:19;;;;;;;12.70;8.30;;;;;;;15.17;nan;101428.31;6188756;23;20535;-92
2022/12/06 10:47:02;;;;;;;11.83;4.40;;;;;;;15.40;nan;101422.41;6097483;23;20422;-93
2022/12/06 10:47:55;;;;;;;4.63;3.00;;;;;;;15.52;nan;101419.91;6096807;23;20521;-93
2022/12/06 10:50:27;;;;;;;7.27;3.60;;;;;;;15.52;nan;101408.88;6026896;23;20425;-93
2022/12/06 10:53:39;;;;;;;5.20;3.33;;;;;;;15.78;nan;101430.97;6026606;23;20448;-92
2022/12/06 10:56:26;;;;;;;5.30;3.50;;;;;;;15.85;nan;101425.47;6073381;23;20445;-92
2022/12/06 11:03:01;;;;;;;22.50;6.33;;;;;;;16.06;nan;101432.69;6096714;23;20442;-91
2022/12/06 11:06:00;;;;;;;10.60;4.87;;;;;;;16.10;nan;101428.44;6097381;23;20418;-91
2022/12/06 11:09:00;;;;;;;19.27;4.00;;;;;;;16.16;nan;101439.44;6073409;23;20414;-91
2022/12/06 11:11:30;;;;;;;16.27;4.73;;;;;;;16.11;nan;101419.09;6073186;23;20450;-92
2022/12/06 11:14:19;;;;;;;19.03;4.73;;;;;;;16.22;nan;101426.72;6033902;23;20458;-93
2022/12/06 11:16:58;;;;;;;13.53;4.33;;;;;;;16.39;nan;101433.47;6112350;23;20436;-92
2022/12/06 11:19:49;;;;;;;16.50;3.90;;;;;;;16.44;nan;101432.84;6109062;23;20398;-90
2022/12/06 11:22:36;;;;;;;15.50;4.37;;;;;;;16.46;nan;101434.31;6107722;23;20773;-91
2022/12/06 11:25:22;;;;;;;14.93;4.70;;;;;;;16.58;nan;101438.09;6108845;23;20739;-90
2022/12/06 11:28:36;;;;;;;38.50;5.83;;;;;;;16.72;nan;101427.91;6108639;23;20950;-91
2022/12/06 11:31:26;;;;;;;20.40;5.90;;;;;;;16.86;nan;101428.72;5992866;23;20548;-91
2022/12/06 11:34:01;;;;;;;49.63;10.77;;;;;;;16.92;nan;101423.19;5993065;23;20830;-90
2022/12/06 11:36:29;;;;;;;58.30;17.00;;;;;;;17.02;nan;101419.94;5969679;23;20404;-91
2022/12/06 11:38:58;;;;;;;33.37;11.13;;;;;;;17.06;nan;101421.19;5969981;23;20484;-89
2022/12/06 11:41:30;;;;;;;52.47;12.67;;;;;;;17.16;nan;101412.41;5969728;23;20451;-91
2022/12/06 11:47:38;;;;;;;38.60;10.43;;;;;;;17.41;nan;101418.00;6039580;23;20427;-92
2022/12/06 11:50:11;;;;;;;29.60;9.60;;;;;;;17.48;nan;101416.06;5970222;23;20424;-92
2022/12/06 11:53:31;;;;;;;28.43;7.97;;;;;;;17.59;nan;101415.34;5973320;23;20495;-92
2022/12/06 11:56:48;;;;;;;39.50;7.53;;;;;;;17.71;nan;101399.72;6013873;23;20420;-93
2022/12/06 11:59:39;;;;;;;35.17;7.60;;;;;;;17.83;nan;101403.47;6136350;23;20487;-92
2022/12/06 12:02:31;;;;;;;31.53;7.77;;;;;;;18.01;nan;101399.06;6162371;23;20440;-92
2022/12/06 12:05:13;;;;;;;23.63;6.87;;;;;;;18.23;nan;101390.13;6137544;23;20462;-92
2022/12/06 12:07:41;;;;;;;29.60;6.13;;;;;;;18.37;nan;101382.53;6113707;23;20419;-89
2022/12/06 12:10:26;;;;;;;22.80;5.13;;;;;;;18.45;nan;101390.53;6112901;23;20412;-91
2022/12/06 12:16:39;;;;;;;20.47;5.50;;;;;;;18.51;nan;101377.69;6165653;23;20463;-90
2022/12/06 12:19:56;;;;;;;35.60;11.90;;;;;;;18.77;nan;101374.63;6161551;23;20467;-91
2022/12/06 12:22:59;;;;;;;13.70;4.70;;;;;;;19.07;nan;101366.31;6161498;23;20586;-90
2022/12/06 12:25:28;;;;;;;14.10;3.93;;;;;;;19.24;nan;101366.53;6136626;23;20462;-90
2022/12/06 12:28:32;;;;;;;15.90;3.50;;;;;;;19.37;nan;101360.78;6113288;23;20520;-90
2022/12/06 12:31:21;;;;;;;7.20;2.80;;;;;;;19.52;nan;101354.81;6161238;23;20531;-90
2022/12/06 12:34:27;;;;;;;18.40;2.80;;;;;;;19.54;nan;101336.00;6161739;23;20399;-90
2022/12/06 12:36:57;;;;;;;14.50;2.27;;;;;;;19.48;nan;101346.09;6091481;23;20408;-90
2022/12/06 12:39:50;;;;;;;6.73;1.80;;;;;;;19.28;nan;101346.41;6113083;23;20412;-90
2022/12/06 12:42:44;;;;;;;11.33;2.17;;;;;;;19.11;nan;101345.38;6136903;23;20575;-90
2022/12/06 12:45:18;;;;;;;9.00;1.57;;;;;;;19.04;nan;101341.88;6186329;23;20487;-91
2022/12/06 12:47:58;;;;;;;18.23;2.00;;;;;;;19.16;nan;101342.75;6107393;23;21095;-90
2022/12/06 12:50:51;;;;;;;5.70;1.57;;;;;;;19.40;nan;101342.84;6107670;23;20539;-89
2022/12/06 12:54:07;;;;;;;9.33;1.60;;;;;;;19.78;nan;101340.50;6108071;23;20932;-90
2022/12/06 12:57:00;;;;;;;11.30;2.00;;;;;;;20.12;nan;101341.59;6155899;23;20397;-90
2022/12/06 12:59:36;;;;;;;15.17;1.63;;;;;;;20.26;nan;101336.63;6156592;23;20404;-91
2022/12/06 13:02:21;;;;;;;6.40;1.00;;;;;;;20.29;nan;101325.88;6145333;23;20442;-90
2022/12/06 13:08:32;;;;;;;14.57;1.20;;;;;;;20.54;nan;101328.41;6157512;23;20415;-90
2022/12/06 13:11:04;;;;;;;6.20;1.40;;;;;;;20.64;nan;101323.03;6107395;23;20970;-90
2022/12/06 13:13:42;;;;;;;7.60;1.93;;;;;;;20.83;nan;101320.06;6131867;23;20845;-90
2022/12/06 13:16:45;;;;;;;6.00;1.10;;;;;;;21.05;nan;101323.84;6132799;23;20401;-92
2022/12/06 13:19:14;;;;;;;5.23;1.37;;;;;;;21.06;nan;101299.69;6131245;23;20412;-91
2022/12/06 13:22:04;;;;;;;7.33;1.10;;;;;;;21.23;nan;101315.31;6107849;23;20433;-91
2022/12/06 13:24:48;;;;;;;4.27;1.53;;;;;;;21.23;nan;101325.59;6131112;23;20401;-90
2022/12/06 13:27:17;;;;;;;13.90;2.67;;;;;;;21.25;nan;101320.63;6108191;23;20480;-91
2022/12/06 13:30:32;;;;;;;3.97;1.10;;;;;;;21.31;nan;101295.47;6131159;23;20420;-91
2022/12/06 13:33:25;;;;;;;5.60;1.90;;;;;;;21.53;nan;101303.06;6156309;23;20408;-91
2022/12/06 13:36:12;;;;;;;4.43;1.60;;;;;;;21.69;nan;101291.06;6155935;23;20496;-91
2022/12/06 13:39:19;;;;;;;12.13;2.43;;;;;;;21.83;nan;101292.41;6131756;23;20931;-90
2022/12/06 13:42:16;;;;;;;13.00;2.10;;;;;;;21.91;nan;101283.63;6155437;23;20480;-90
2022/12/06 13:44:58;;;;;;;7.73;1.90;;;;;;;21.89;nan;101274.69;6134337;23;20401;-91
2022/12/06 13:47:28;;;;;;;7.70;2.07;;;;;;;21.95;nan;101267.22;6137443;23;20502;-90
2022/12/06 13:50:14;;;;;;;8.80;2.37;;;;;;;21.97;nan;101265.88;6159929;23;20887;-92
2022/12/06 13:52:41;;;;;;;9.80;2.17;;;;;;;22.05;nan;101271.06;6139100;23;20431;-90
2022/12/06 13:55:38;;;;;;;10.33;2.30;;;;;;;22.04;nan;101265.75;6160653;23;20416;-91
2022/12/06 13:58:25;;;;;;;10.00;2.00;;;;;;;21.95;nan;101268.06;6160597;23;20483;-90
2022/12/06 14:01:48;;;;;;;8.50;2.13;;;;;;;21.68;nan;101267.97;6186883;23;20720;-91
2022/12/06 14:04:41;;;;;;;13.83;2.40;;;;;;;21.33;nan;101253.50;6141350;23;20412;-92
2022/12/06 14:07:37;;;;;;;12.43;2.33;;;;;;;21.15;nan;101254.56;6114086;23;20416;-92
2022/12/06 14:10:45;;;;;;;7.17;2.13;;;;;;;20.88;nan;101254.34;6161634;23;20408;-91
2022/12/06 14:13:26;;;;;;;8.90;3.33;;;;;;;20.50;nan;101260.53;6159990;23;20423;-92
2022/12/06 14:19:54;;;;;;;10.87;3.13;;;;;;;19.79;nan;101255.38;6186235;23;20404;-93